sensor_id;sensor_type;location;lat;lon;timestamp;temperature;humidity
69281;SHT31;56392;51.082;17.080;2023-05-01T00:01:06;8.46;66.34
69281;SHT31;56392;51.082;17.080;2023-05-01T00:06:29;8.44;66.84
69281;SHT31;56392;51.082;17.080;2023-05-01T00:11:55;8.41;66.80
69281;SHT31;56392;51.082;17.080;2023-05-01T00:17:18;8.30;66.78
69281;SHT31;56392;51.082;17.080;2023-05-01T00:22:43;8.18;66.52
69281;SHT31;56392;51.082;17.080;2023-05-01T00:28:07;8.08;66.40
69281;SHT31;56392;51.082;17.080;2023-05-01T00:33:30;7.97;66.76
69281;SHT31;56392;51.082;17.080;2023-05-01T00:38:53;7.94;66.95
69281;SHT31;56392;51.082;17.080;2023-05-01T00:44:18;7.82;66.78
69281;SHT31;56392;51.082;17.080;2023-05-01T00:49:41;7.72;67.03
69281;SHT31;56392;51.082;17.080;2023-05-01T00:55:05;7.67;67.23
69281;SHT31;56392;51.082;17.080;2023-05-01T01:00:30;7.62;67.27
69281;SHT31;56392;51.082;17.080;2023-05-01T01:05:56;7.58;67.47
69281;SHT31;56392;51.082;17.080;2023-05-01T01:11:27;7.55;67.41
69281;SHT31;56392;51.082;17.080;2023-05-01T01:16:56;7.51;67.76
69281;SHT31;56392;51.082;17.080;2023-05-01T01:22:22;7.52;68.03
69281;SHT31;56392;51.082;17.080;2023-05-01T01:28:01;7.43;68.07
69281;SHT31;56392;51.082;17.080;2023-05-01T01:34:04;7.43;68.43
69281;SHT31;56392;51.082;17.080;2023-05-01T01:39:37;7.31;68.51
69281;SHT31;56392;51.082;17.080;2023-05-01T01:45:10;7.28;68.43
69281;SHT31;56392;51.082;17.080;2023-05-01T01:50:39;7.26;68.67
69281;SHT31;56392;51.082;17.080;2023-05-01T01:56:05;7.21;68.97
69281;SHT31;56392;51.082;17.080;2023-05-01T02:01:29;7.16;68.66
69281;SHT31;56392;51.082;17.080;2023-05-01T02:06:55;7.21;68.76
69281;SHT31;56392;51.082;17.080;2023-05-01T02:12:18;7.14;68.41
69281;SHT31;56392;51.082;17.080;2023-05-01T02:17:43;7.08;68.79
69281;SHT31;56392;51.082;17.080;2023-05-01T02:23:08;7.04;68.58
69281;SHT31;56392;51.082;17.080;2023-05-01T02:28:33;6.98;68.78
69281;SHT31;56392;51.082;17.080;2023-05-01T02:33:56;6.92;68.95
69281;SHT31;56392;51.082;17.080;2023-05-01T02:39:21;6.88;69.03
69281;SHT31;56392;51.082;17.080;2023-05-01T02:44:48;6.81;69.00
69281;SHT31;56392;51.082;17.080;2023-05-01T02:50:12;6.76;69.09
69281;SHT31;56392;51.082;17.080;2023-05-01T02:55:38;6.73;69.05
69281;SHT31;56392;51.082;17.080;2023-05-01T03:01:03;6.73;69.19
69281;SHT31;56392;51.082;17.080;2023-05-01T03:06:26;6.67;69.25
69281;SHT31;56392;51.082;17.080;2023-05-01T03:11:53;6.61;69.41
69281;SHT31;56392;51.082;17.080;2023-05-01T03:17:16;6.56;69.33
69281;SHT31;56392;51.082;17.080;2023-05-01T03:22:39;6.46;69.57
69281;SHT31;56392;51.082;17.080;2023-05-01T03:28:04;6.40;69.76
69281;SHT31;56392;51.082;17.080;2023-05-01T03:33:27;6.37;69.93
69281;SHT31;56392;51.082;17.080;2023-05-01T03:38:50;6.36;69.94
69281;SHT31;56392;51.082;17.080;2023-05-01T03:44:14;6.34;69.60
69281;SHT31;56392;51.082;17.080;2023-05-01T03:49:37;6.28;69.56
69281;SHT31;56392;51.082;17.080;2023-05-01T03:55:00;6.19;69.77
69281;SHT31;56392;51.082;17.080;2023-05-01T04:00:25;6.19;70.00
69281;SHT31;56392;51.082;17.080;2023-05-01T04:05:48;6.19;70.36
69281;SHT31;56392;51.082;17.080;2023-05-01T04:11:11;6.19;70.56
69281;SHT31;56392;51.082;17.080;2023-05-01T04:16:35;6.20;70.53
69281;SHT31;56392;51.082;17.080;2023-05-01T04:21:58;6.18;70.93
69281;SHT31;56392;51.082;17.080;2023-05-01T04:27:22;6.19;71.28
69281;SHT31;56392;51.082;17.080;2023-05-01T04:32:46;6.23;72.16
69281;SHT31;56392;51.082;17.080;2023-05-01T04:38:10;6.34;72.54
69281;SHT31;56392;51.082;17.080;2023-05-01T04:43:32;6.39;73.27
69281;SHT31;56392;51.082;17.080;2023-05-01T04:48:57;6.53;73.16
69281;SHT31;56392;51.082;17.080;2023-05-01T04:54:20;6.66;73.17
69281;SHT31;56392;51.082;17.080;2023-05-01T04:59:43;6.88;73.56
69281;SHT31;56392;51.082;17.080;2023-05-01T05:05:08;7.14;72.65
69281;SHT31;56392;51.082;17.080;2023-05-01T05:10:31;7.43;72.77
69281;SHT31;56392;51.082;17.080;2023-05-01T05:15:54;7.74;71.58
69281;SHT31;56392;51.082;17.080;2023-05-01T05:21:18;8.03;71.09
69281;SHT31;56392;51.082;17.080;2023-05-01T05:26:41;8.25;70.61
69281;SHT31;56392;51.082;17.080;2023-05-01T05:32:06;8.52;69.71
69281;SHT31;56392;51.082;17.080;2023-05-01T05:37:30;8.80;68.96
69281;SHT31;56392;51.082;17.080;2023-05-01T05:42:53;9.14;68.97
69281;SHT31;56392;51.082;17.080;2023-05-01T05:48:17;9.47;67.17
69281;SHT31;56392;51.082;17.080;2023-05-01T05:53:41;9.65;67.39
69281;SHT31;56392;51.082;17.080;2023-05-01T05:59:04;9.94;65.76
69281;SHT31;56392;51.082;17.080;2023-05-01T06:04:27;10.23;65.61
69281;SHT31;56392;51.082;17.080;2023-05-01T06:09:51;10.52;64.49
69281;SHT31;56392;51.082;17.080;2023-05-01T06:15:14;10.78;63.64
69281;SHT31;56392;51.082;17.080;2023-05-01T06:20:38;11.08;62.72
69281;SHT31;56392;51.082;17.080;2023-05-01T06:26:02;11.36;63.18
69281;SHT31;56392;51.082;17.080;2023-05-01T06:31:25;11.73;60.88
69281;SHT31;56392;51.082;17.080;2023-05-01T06:36:48;12.06;58.88
69281;SHT31;56392;51.082;17.080;2023-05-01T06:42:13;12.33;60.39
69281;SHT31;56392;51.082;17.080;2023-05-01T06:47:37;12.87;56.53
69281;SHT31;56392;51.082;17.080;2023-05-01T06:53:00;13.36;54.58
69281;SHT31;56392;51.082;17.080;2023-05-01T06:58:24;13.70;51.95
69281;SHT31;56392;51.082;17.080;2023-05-01T07:03:47;13.95;53.66
69281;SHT31;56392;51.082;17.080;2023-05-01T07:09:11;14.33;49.84
69281;SHT31;56392;51.082;17.080;2023-05-01T07:14:35;14.62;50.41
69281;SHT31;56392;51.082;17.080;2023-05-01T07:19:59;14.91;46.57
69281;SHT31;56392;51.082;17.080;2023-05-01T07:25:22;15.12;43.57
69281;SHT31;56392;51.082;17.080;2023-05-01T07:30:47;15.27;46.64
69281;SHT31;56392;51.082;17.080;2023-05-01T07:36:10;15.34;41.69
69281;SHT31;56392;51.082;17.080;2023-05-01T07:41:33;15.37;42.39
69281;SHT31;56392;51.082;17.080;2023-05-01T07:47:03;15.61;43.32
69281;SHT31;56392;51.082;17.080;2023-05-01T07:52:26;15.95;43.40
69281;SHT31;56392;51.082;17.080;2023-05-01T07:57:49;16.29;43.06
69281;SHT31;56392;51.082;17.080;2023-05-01T08:03:13;16.60;42.91
69281;SHT31;56392;51.082;17.080;2023-05-01T08:08:37;16.78;41.87
69281;SHT31;56392;51.082;17.080;2023-05-01T08:14:00;17.00;41.34
69281;SHT31;56392;51.082;17.080;2023-05-01T08:19:25;17.11;41.04
69281;SHT31;56392;51.082;17.080;2023-05-01T08:24:49;17.12;39.57
69281;SHT31;56392;51.082;17.080;2023-05-01T08:30:12;17.29;36.98
69281;SHT31;56392;51.082;17.080;2023-05-01T08:35:36;17.11;37.50
69281;SHT31;56392;51.082;17.080;2023-05-01T08:40:59;17.02;36.42
69281;SHT31;56392;51.082;17.080;2023-05-01T08:46:30;16.85;35.94
69281;SHT31;56392;51.082;17.080;2023-05-01T08:51:57;16.84;36.81
69281;SHT31;56392;51.082;17.080;2023-05-01T08:57:25;16.82;36.30
69281;SHT31;56392;51.082;17.080;2023-05-01T09:02:49;17.16;37.57
69281;SHT31;56392;51.082;17.080;2023-05-01T09:08:14;17.21;35.42
69281;SHT31;56392;51.082;17.080;2023-05-01T09:13:37;17.15;38.25
69281;SHT31;56392;51.082;17.080;2023-05-01T09:19:00;17.40;37.35
69281;SHT31;56392;51.082;17.080;2023-05-01T09:24:25;17.32;36.31
69281;SHT31;56392;51.082;17.080;2023-05-01T09:29:48;17.35;37.90
69281;SHT31;56392;51.082;17.080;2023-05-01T09:35:13;17.65;39.03
69281;SHT31;56392;51.082;17.080;2023-05-01T09:40:39;17.60;37.18
69281;SHT31;56392;51.082;17.080;2023-05-01T09:46:04;17.33;35.82
69281;SHT31;56392;51.082;17.080;2023-05-01T09:51:28;17.35;37.50
69281;SHT31;56392;51.082;17.080;2023-05-01T09:56:53;17.45;37.92
69281;SHT31;56392;51.082;17.080;2023-05-01T10:02:27;17.52;35.72
69281;SHT31;56392;51.082;17.080;2023-05-01T10:07:55;17.70;36.76
69281;SHT31;56392;51.082;17.080;2023-05-01T10:13:20;17.77;38.00
69281;SHT31;56392;51.082;17.080;2023-05-01T10:18:43;18.01;37.77
69281;SHT31;56392;51.082;17.080;2023-05-01T10:24:06;18.31;36.97
69281;SHT31;56392;51.082;17.080;2023-05-01T10:29:33;18.30;34.24
69281;SHT31;56392;51.082;17.080;2023-05-01T10:35:00;18.27;35.09
69281;SHT31;56392;51.082;17.080;2023-05-01T10:40:42;18.25;35.04
69281;SHT31;56392;51.082;17.080;2023-05-01T10:46:28;18.23;32.73
69281;SHT31;56392;51.082;17.080;2023-05-01T10:51:58;18.14;33.46
69281;SHT31;56392;51.082;17.080;2023-05-01T10:57:42;18.03;34.56
69281;SHT31;56392;51.082;17.080;2023-05-01T11:03:34;18.13;34.51
69281;SHT31;56392;51.082;17.080;2023-05-01T11:08:58;18.20;31.99
69281;SHT31;56392;51.082;17.080;2023-05-01T11:14:22;18.21;33.64
69281;SHT31;56392;51.082;17.080;2023-05-01T11:19:47;18.31;33.30
69281;SHT31;56392;51.082;17.080;2023-05-01T11:25:18;18.32;33.51
69281;SHT31;56392;51.082;17.080;2023-05-01T11:30:42;18.37;33.07
69281;SHT31;56392;51.082;17.080;2023-05-01T11:36:07;18.20;31.52
69281;SHT31;56392;51.082;17.080;2023-05-01T11:41:31;18.23;33.08
69281;SHT31;56392;51.082;17.080;2023-05-01T11:46:55;18.31;32.24
69281;SHT31;56392;51.082;17.080;2023-05-01T11:52:20;18.17;28.50
69281;SHT31;56392;51.082;17.080;2023-05-01T11:57:47;18.01;28.02
69281;SHT31;56392;51.082;17.080;2023-05-01T12:03:11;18.01;31.33
69281;SHT31;56392;51.082;17.080;2023-05-01T12:08:36;18.13;29.40
69281;SHT31;56392;51.082;17.080;2023-05-01T12:14:03;18.08;30.05
69281;SHT31;56392;51.082;17.080;2023-05-01T12:19:26;18.15;30.41
69281;SHT31;56392;51.082;17.080;2023-05-01T12:24:51;18.14;29.69
69281;SHT31;56392;51.082;17.080;2023-05-01T12:30:23;18.20;29.44
69281;SHT31;56392;51.082;17.080;2023-05-01T12:35:49;18.34;27.59
69281;SHT31;56392;51.082;17.080;2023-05-01T12:41:13;18.41;28.61
69281;SHT31;56392;51.082;17.080;2023-05-01T12:46:37;18.48;28.46
69281;SHT31;56392;51.082;17.080;2023-05-01T12:52:00;18.51;29.24
69281;SHT31;56392;51.082;17.080;2023-05-01T12:57:25;18.55;30.45
69281;SHT31;56392;51.082;17.080;2023-05-01T13:02:48;18.49;29.83
69281;SHT31;56392;51.082;17.080;2023-05-01T13:08:11;18.48;31.05
69281;SHT31;56392;51.082;17.080;2023-05-01T13:13:36;18.49;31.55
69281;SHT31;56392;51.082;17.080;2023-05-01T13:18:59;18.55;32.00
69281;SHT31;56392;51.082;17.080;2023-05-01T13:24:22;18.55;32.26
69281;SHT31;56392;51.082;17.080;2023-05-01T13:29:52;18.59;32.07
69281;SHT31;56392;51.082;17.080;2023-05-01T13:35:21;18.62;32.47
69281;SHT31;56392;51.082;17.080;2023-05-01T13:40:45;18.63;33.31
69281;SHT31;56392;51.082;17.080;2023-05-01T13:46:12;18.71;32.03
69281;SHT31;56392;51.082;17.080;2023-05-01T13:51:39;18.75;31.45
69281;SHT31;56392;51.082;17.080;2023-05-01T13:57:03;18.76;32.15
69281;SHT31;56392;51.082;17.080;2023-05-01T14:02:28;18.88;32.79
69281;SHT31;56392;51.082;17.080;2023-05-01T14:07:54;18.83;33.78
69281;SHT31;56392;51.082;17.080;2023-05-01T14:13:17;18.91;31.90
69281;SHT31;56392;51.082;17.080;2023-05-01T14:18:44;18.86;33.10
69281;SHT31;56392;51.082;17.080;2023-05-01T14:24:08;18.95;32.77
69281;SHT31;56392;51.082;17.080;2023-05-01T14:29:31;18.99;32.72
69281;SHT31;56392;51.082;17.080;2023-05-01T14:34:55;19.06;32.47
69281;SHT31;56392;51.082;17.080;2023-05-01T14:40:24;19.03;33.10
69281;SHT31;56392;51.082;17.080;2023-05-01T14:45:47;19.00;33.40
69281;SHT31;56392;51.082;17.080;2023-05-01T14:51:13;19.06;32.18
69281;SHT31;56392;51.082;17.080;2023-05-01T14:56:41;19.07;33.07
69281;SHT31;56392;51.082;17.080;2023-05-01T15:02:05;19.09;33.24
69281;SHT31;56392;51.082;17.080;2023-05-01T15:07:29;19.19;32.74
69281;SHT31;56392;51.082;17.080;2023-05-01T15:12:52;19.17;33.32
69281;SHT31;56392;51.082;17.080;2023-05-01T15:18:15;19.27;33.18
69281;SHT31;56392;51.082;17.080;2023-05-01T15:23:40;19.38;33.06
69281;SHT31;56392;51.082;17.080;2023-05-01T15:29:05;19.34;31.80
69281;SHT31;56392;51.082;17.080;2023-05-01T15:34:28;19.33;33.20
69281;SHT31;56392;51.082;17.080;2023-05-01T15:39:53;19.35;33.44
69281;SHT31;56392;51.082;17.080;2023-05-01T15:45:16;19.28;35.08
69281;SHT31;56392;51.082;17.080;2023-05-01T15:50:39;19.27;35.40
69281;SHT31;56392;51.082;17.080;2023-05-01T15:56:04;19.27;35.35
69281;SHT31;56392;51.082;17.080;2023-05-01T16:01:27;19.30;35.84
69281;SHT31;56392;51.082;17.080;2023-05-01T16:06:50;19.28;36.32
69281;SHT31;56392;51.082;17.080;2023-05-01T16:12:14;19.24;37.51
69281;SHT31;56392;51.082;17.080;2023-05-01T16:17:42;19.26;37.15
69281;SHT31;56392;51.082;17.080;2023-05-01T16:23:05;19.33;37.09
69281;SHT31;56392;51.082;17.080;2023-05-01T16:28:32;19.30;38.04
69281;SHT31;56392;51.082;17.080;2023-05-01T16:33:56;19.30;38.36
69281;SHT31;56392;51.082;17.080;2023-05-01T16:39:20;19.34;38.25
69281;SHT31;56392;51.082;17.080;2023-05-01T16:44:45;19.27;38.88
69281;SHT31;56392;51.082;17.080;2023-05-01T16:50:09;19.27;39.36
69281;SHT31;56392;51.082;17.080;2023-05-01T16:55:32;19.26;40.05
69281;SHT31;56392;51.082;17.080;2023-05-01T17:00:56;19.23;40.65
69281;SHT31;56392;51.082;17.080;2023-05-01T17:06:20;19.23;41.56
69281;SHT31;56392;51.082;17.080;2023-05-01T17:11:43;19.16;42.08
69281;SHT31;56392;51.082;17.080;2023-05-01T17:17:08;19.17;42.89
69281;SHT31;56392;51.082;17.080;2023-05-01T17:22:31;19.17;43.36
69281;SHT31;56392;51.082;17.080;2023-05-01T17:27:54;19.13;44.06
69281;SHT31;56392;51.082;17.080;2023-05-01T17:33:18;19.03;45.55
69281;SHT31;56392;51.082;17.080;2023-05-01T17:38:41;18.86;46.53
69281;SHT31;56392;51.082;17.080;2023-05-01T17:44:04;18.83;46.48
69281;SHT31;56392;51.082;17.080;2023-05-01T17:49:29;18.76;47.30
69281;SHT31;56392;51.082;17.080;2023-05-01T17:54:52;18.63;47.90
69281;SHT31;56392;51.082;17.080;2023-05-01T18:00:15;18.58;47.88
69281;SHT31;56392;51.082;17.080;2023-05-01T18:05:40;18.52;48.08
69281;SHT31;56392;51.082;17.080;2023-05-01T18:11:04;18.45;48.48
69281;SHT31;56392;51.082;17.080;2023-05-01T18:16:27;18.27;49.53
69281;SHT31;56392;51.082;17.080;2023-05-01T18:21:52;18.15;49.20
69281;SHT31;56392;51.082;17.080;2023-05-01T18:27:15;18.18;49.29
69281;SHT31;56392;51.082;17.080;2023-05-01T18:32:38;18.20;49.31
69281;SHT31;56392;51.082;17.080;2023-05-01T18:38:03;18.18;49.40
69281;SHT31;56392;51.082;17.080;2023-05-01T18:43:25;18.18;49.63
69281;SHT31;56392;51.082;17.080;2023-05-01T18:48:49;18.10;49.93
69281;SHT31;56392;51.082;17.080;2023-05-01T18:54:14;18.05;50.34
69281;SHT31;56392;51.082;17.080;2023-05-01T18:59:37;18.05;50.55
69281;SHT31;56392;51.082;17.080;2023-05-01T19:05:00;18.01;50.80
69281;SHT31;56392;51.082;17.080;2023-05-01T19:10:25;17.96;50.98
69281;SHT31;56392;51.082;17.080;2023-05-01T19:15:48;17.83;51.42
69281;SHT31;56392;51.082;17.080;2023-05-01T19:21:11;17.74;51.89
69281;SHT31;56392;51.082;17.080;2023-05-01T19:26:36;17.65;52.24
69281;SHT31;56392;51.082;17.080;2023-05-01T19:31:59;17.59;52.87
69281;SHT31;56392;51.082;17.080;2023-05-01T19:37:23;17.50;53.00
69281;SHT31;56392;51.082;17.080;2023-05-01T19:42:47;17.46;53.14
69281;SHT31;56392;51.082;17.080;2023-05-01T19:48:11;17.40;53.24
69281;SHT31;56392;51.082;17.080;2023-05-01T19:53:34;17.38;53.22
69281;SHT31;56392;51.082;17.080;2023-05-01T19:58:58;17.29;53.80
69281;SHT31;56392;51.082;17.080;2023-05-01T20:04:21;17.22;53.46
69281;SHT31;56392;51.082;17.080;2023-05-01T20:09:44;17.14;53.35
69281;SHT31;56392;51.082;17.080;2023-05-01T20:15:09;17.05;53.44
69281;SHT31;56392;51.082;17.080;2023-05-01T20:20:33;16.96;53.80
69281;SHT31;56392;51.082;17.080;2023-05-01T20:25:56;16.81;54.41
69281;SHT31;56392;51.082;17.080;2023-05-01T20:31:21;16.71;54.03
69281;SHT31;56392;51.082;17.080;2023-05-01T20:36:44;16.70;54.02
69281;SHT31;56392;51.082;17.080;2023-05-01T20:42:07;16.63;54.11
69281;SHT31;56392;51.082;17.080;2023-05-01T20:47:31;16.51;53.76
69281;SHT31;56392;51.082;17.080;2023-05-01T20:52:54;16.43;54.45
69281;SHT31;56392;51.082;17.080;2023-05-01T20:58:17;16.30;54.73
69281;SHT31;56392;51.082;17.080;2023-05-01T21:03:42;16.27;54.91
69281;SHT31;56392;51.082;17.080;2023-05-01T21:09:05;16.19;55.28
69281;SHT31;56392;51.082;17.080;2023-05-01T21:14:31;16.16;55.58
69281;SHT31;56392;51.082;17.080;2023-05-01T21:19:55;16.09;55.82
69281;SHT31;56392;51.082;17.080;2023-05-01T21:25:21;15.96;57.10
69281;SHT31;56392;51.082;17.080;2023-05-01T21:30:48;15.85;56.74
69281;SHT31;56392;51.082;17.080;2023-05-01T21:36:12;15.79;56.43
69281;SHT31;56392;51.082;17.080;2023-05-01T21:41:39;15.78;57.28
69281;SHT31;56392;51.082;17.080;2023-05-01T21:47:02;15.73;56.90
69281;SHT31;56392;51.082;17.080;2023-05-01T21:52:27;15.61;57.02
69281;SHT31;56392;51.082;17.080;2023-05-01T21:57:50;15.50;57.66
69281;SHT31;56392;51.082;17.080;2023-05-01T22:03:15;15.41;57.97
69281;SHT31;56392;51.082;17.080;2023-05-01T22:08:40;15.34;57.73
69281;SHT31;56392;51.082;17.080;2023-05-01T22:14:03;15.26;58.44
69281;SHT31;56392;51.082;17.080;2023-05-01T22:19:26;15.20;58.12
69281;SHT31;56392;51.082;17.080;2023-05-01T22:24:50;15.14;58.31
69281;SHT31;56392;51.082;17.080;2023-05-01T22:30:13;15.11;58.54
69281;SHT31;56392;51.082;17.080;2023-05-01T22:35:36;15.08;58.93
69281;SHT31;56392;51.082;17.080;2023-05-01T22:41:01;15.00;59.88
69281;SHT31;56392;51.082;17.080;2023-05-01T22:46:24;14.96;59.54
69281;SHT31;56392;51.082;17.080;2023-05-01T22:51:47;14.87;59.63
69281;SHT31;56392;51.082;17.080;2023-05-01T22:57:12;14.70;60.21
69281;SHT31;56392;51.082;17.080;2023-05-01T23:02:35;14.63;61.48
69281;SHT31;56392;51.082;17.080;2023-05-01T23:07:58;14.49;61.91
69281;SHT31;56392;51.082;17.080;2023-05-01T23:13:22;14.39;62.52
69281;SHT31;56392;51.082;17.080;2023-05-01T23:18:45;14.25;62.99
69281;SHT31;56392;51.082;17.080;2023-05-01T23:24:10;14.12;63.55
69281;SHT31;56392;51.082;17.080;2023-05-01T23:29:35;14.07;63.22
69281;SHT31;56392;51.082;17.080;2023-05-01T23:35:02;14.09;62.58
69281;SHT31;56392;51.082;17.080;2023-05-01T23:40:26;14.15;62.51
69281;SHT31;56392;51.082;17.080;2023-05-01T23:45:51;14.09;63.10
69281;SHT31;56392;51.082;17.080;2023-05-01T23:51:14;14.01;63.55
69281;SHT31;56392;51.082;17.080;2023-05-01T23:56:37;13.85;64.79
